createdAt,value
2023-02-18T00:00:58.618Z,4.37
2023-02-18T00:03:26.721Z,3.80
2023-02-18T00:05:56.057Z,5.13
2023-02-18T00:08:23.749Z,4.63
2023-02-18T00:10:51.757Z,3.70
2023-02-18T00:13:19.363Z,5.30
2023-02-18T00:15:47.880Z,4.40
2023-02-18T00:18:15.549Z,3.60
2023-02-18T00:20:43.176Z,4.00
2023-02-18T00:23:12.105Z,4.20
2023-02-18T00:25:39.662Z,5.07
2023-02-18T00:28:07.290Z,5.20
2023-02-18T00:30:35.050Z,6.13
2023-02-18T00:33:02.806Z,4.00
2023-02-18T00:35:30.415Z,3.13
2023-02-18T00:37:57.990Z,3.17
2023-02-18T00:40:26.990Z,5.40
2023-02-18T00:42:54.620Z,4.63
2023-02-18T00:45:22.339Z,5.30
2023-02-18T00:47:49.956Z,4.83
2023-02-18T00:50:18.225Z,3.97
2023-02-18T00:52:45.896Z,4.53
2023-02-18T00:55:13.555Z,5.63
2023-02-18T00:57:42.548Z,4.23
2023-02-18T01:00:11.223Z,5.67
2023-02-18T01:02:38.901Z,4.77
2023-02-18T01:05:06.873Z,4.77
2023-02-18T01:07:34.584Z,4.40
2023-02-18T01:10:02.289Z,5.30
2023-02-18T01:12:30.032Z,4.67
2023-02-18T01:14:59.011Z,3.60
2023-02-18T01:17:26.771Z,5.13
2023-02-18T01:19:54.456Z,3.50
2023-02-18T01:22:22.375Z,3.93
2023-02-18T01:24:50.478Z,3.47
2023-02-18T01:27:18.071Z,4.83
2023-02-18T01:29:45.778Z,4.67
2023-02-18T01:32:14.833Z,4.20
2023-02-18T01:34:42.728Z,4.97
2023-02-18T01:37:10.397Z,3.93
2023-02-18T01:39:38.216Z,4.67
2023-02-18T01:42:07.037Z,4.03
2023-02-18T01:44:36.324Z,4.67
2023-02-18T01:47:03.938Z,5.97
2023-02-18T01:49:35.279Z,4.27
2023-02-18T01:52:06.320Z,5.43
2023-02-18T01:54:35.567Z,6.80
2023-02-18T01:57:06.643Z,4.90
2023-02-18T01:59:40.917Z,4.47
2023-02-18T02:02:10.370Z,4.23
2023-02-18T02:04:43.823Z,6.97
2023-02-18T02:07:14.965Z,4.47
2023-02-18T02:09:43.377Z,5.03
2023-02-18T02:12:26.644Z,4.67
2023-02-18T02:15:05.246Z,6.37
2023-02-18T02:17:39.737Z,4.00
2023-02-18T02:20:25.312Z,4.37
2023-02-18T02:23:31.021Z,4.03
2023-02-18T02:26:26.168Z,3.50
2023-02-18T02:31:53.605Z,5.37
2023-02-18T02:34:45.926Z,3.50
2023-02-18T02:37:17.723Z,4.60
2023-02-18T02:39:57.284Z,3.60
2023-02-18T02:42:31.845Z,2.67
2023-02-18T02:45:07.932Z,3.33
2023-02-18T02:47:39.540Z,5.10
2023-02-18T02:50:11.268Z,3.33
2023-02-18T02:52:42.167Z,3.27
2023-02-18T02:55:10.182Z,4.20
2023-02-18T02:57:51.625Z,4.33
2023-02-18T03:00:27.732Z,3.43
2023-02-18T03:03:06.764Z,4.10
2023-02-18T03:05:40.702Z,4.10
2023-02-18T03:08:25.719Z,3.40
2023-02-18T03:10:59.514Z,2.83
2023-02-18T03:13:34.092Z,3.73
2023-02-18T03:16:09.499Z,3.00
2023-02-18T03:18:39.802Z,3.30
2023-02-18T03:21:11.843Z,4.23
2023-02-18T03:23:42.722Z,3.37
2023-02-18T03:26:10.954Z,4.63
2023-02-18T03:28:39.624Z,3.40
2023-02-18T03:31:10.766Z,3.33
2023-02-18T03:33:41.599Z,3.07
2023-02-18T03:36:12.811Z,3.70
2023-02-18T03:38:43.870Z,2.60
2023-02-18T03:41:11.628Z,2.87
2023-02-18T03:43:41.280Z,3.60
2023-02-18T03:46:09.335Z,3.87
2023-02-18T03:48:37.540Z,4.27
2023-02-18T03:51:05.495Z,2.97
2023-02-18T03:53:34.379Z,2.57
2023-02-18T03:56:01.878Z,3.13
2023-02-18T03:58:29.454Z,2.77
2023-02-18T04:00:56.989Z,3.43
2023-02-18T04:03:24.557Z,3.30
2023-02-18T04:05:52.061Z,2.80
2023-02-18T04:08:20.579Z,2.50
2023-02-18T04:10:49.463Z,2.63
2023-02-18T04:13:17.615Z,2.70
2023-02-18T04:15:45.736Z,2.83
2023-02-18T04:18:13.609Z,2.30
2023-02-18T04:20:41.095Z,3.47
2023-02-18T04:23:08.728Z,2.67
2023-02-18T04:25:36.680Z,3.00
2023-02-18T04:28:05.920Z,2.83
2023-02-18T04:30:33.817Z,2.63
2023-02-18T04:33:01.671Z,2.93
2023-02-18T04:35:29.318Z,3.40
2023-02-18T04:37:56.827Z,2.40
2023-02-18T04:40:25.451Z,2.63
2023-02-18T04:42:53.104Z,2.60
2023-02-18T04:45:22.026Z,2.80
2023-02-18T04:47:49.546Z,2.43
2023-02-18T04:50:17.241Z,2.70
2023-02-18T04:52:44.907Z,2.60
2023-02-18T04:55:12.473Z,4.43
2023-02-18T04:57:39.995Z,2.80
2023-02-18T05:00:09.815Z,3.10
2023-02-18T05:02:38.680Z,3.37
2023-02-18T05:05:09.519Z,2.70
2023-02-18T05:07:37.144Z,2.70
2023-02-18T05:10:05.238Z,2.33
2023-02-18T05:12:32.936Z,2.93
2023-02-18T05:15:00.579Z,2.67
2023-02-18T05:17:28.180Z,2.50
2023-02-18T05:19:57.114Z,2.20
2023-02-18T05:22:24.726Z,3.20
2023-02-18T05:24:52.262Z,2.90
2023-02-18T05:27:19.863Z,2.93
2023-02-18T05:29:47.403Z,3.40
2023-02-18T05:32:15.040Z,2.63
2023-02-18T05:34:42.814Z,2.10
2023-02-18T05:37:13.587Z,3.00
2023-02-18T05:39:41.204Z,2.20
2023-02-18T05:42:08.903Z,2.23
2023-02-18T05:44:36.373Z,3.10
2023-02-18T05:47:08.779Z,2.73
2023-02-18T05:49:37.868Z,3.10
2023-02-18T05:52:06.121Z,2.13
2023-02-18T05:54:35.773Z,2.60
2023-02-18T05:57:03.781Z,2.30
2023-02-18T05:59:31.908Z,2.43
2023-02-18T06:01:59.471Z,2.20
2023-02-18T06:04:26.966Z,2.87
2023-02-18T06:06:54.759Z,3.63
2023-02-18T06:09:22.734Z,2.40
2023-02-18T06:11:51.647Z,2.73
2023-02-18T06:14:19.316Z,2.90
2023-02-18T06:16:46.892Z,2.50
2023-02-18T06:19:14.637Z,2.97
2023-02-18T06:21:42.280Z,2.37
2023-02-18T06:24:09.803Z,2.40
2023-02-18T06:26:37.325Z,2.40
2023-02-18T06:29:06.192Z,2.57
2023-02-18T06:31:33.889Z,2.00
2023-02-18T06:34:01.436Z,2.47
2023-02-18T06:36:29.230Z,1.90
2023-02-18T06:38:57.529Z,2.80
2023-02-18T06:41:25.185Z,2.00
2023-02-18T06:43:52.742Z,2.27
2023-02-18T06:46:21.621Z,1.63
2023-02-18T06:48:49.396Z,1.73
2023-02-18T06:51:17.076Z,1.90
2023-02-18T06:53:44.809Z,1.73
2023-02-18T06:56:12.310Z,2.70
2023-02-18T06:58:40.024Z,1.90
2023-02-18T07:01:07.880Z,2.07
2023-02-18T07:03:36.767Z,1.23
2023-02-18T07:06:04.924Z,2.90
2023-02-18T07:08:33.118Z,2.90
2023-02-18T07:11:00.734Z,2.80
2023-02-18T07:13:28.306Z,1.80
2023-02-18T07:15:56.335Z,2.30
2023-02-18T07:18:24.019Z,2.90
2023-02-18T07:20:52.935Z,1.93
2023-02-18T07:23:20.509Z,2.80
2023-02-18T07:25:48.092Z,2.73
2023-02-18T07:28:15.636Z,2.57
2023-02-18T07:30:43.167Z,2.80
2023-02-18T07:33:10.879Z,3.57
2023-02-18T07:35:38.552Z,2.40
2023-02-18T07:38:07.441Z,3.07
2023-02-18T07:40:35.008Z,2.27
2023-02-18T07:43:02.566Z,2.43
2023-02-18T07:45:30.285Z,2.40
2023-02-18T07:47:57.816Z,3.63
2023-02-18T07:50:25.317Z,2.30
2023-02-18T07:52:53.052Z,2.70
2023-02-18T07:55:22.010Z,2.30
2023-02-18T07:58:00.885Z,2.73
2023-02-18T08:00:28.531Z,2.50
2023-02-18T08:02:56.142Z,2.40
2023-02-18T08:05:23.919Z,2.30
2023-02-18T08:07:51.432Z,2.77
2023-02-18T08:10:19.131Z,2.73
2023-02-18T08:12:48.199Z,3.60
2023-02-18T08:15:16.066Z,2.80
2023-02-18T08:17:43.673Z,2.70
2023-02-18T08:20:12.114Z,2.97
2023-02-18T08:22:39.653Z,3.40
2023-02-18T08:25:08.349Z,2.70
2023-02-18T08:27:36.802Z,2.97
2023-02-18T08:30:06.953Z,2.13
2023-02-18T08:32:34.584Z,4.50
2023-02-18T08:35:02.729Z,2.53
2023-02-18T08:37:30.371Z,2.50
2023-02-18T08:40:18.207Z,2.70
2023-02-18T08:42:45.912Z,2.70
2023-02-18T08:45:14.928Z,2.53
2023-02-18T08:48:18.755Z,2.67
2023-02-18T08:50:30.343Z,2.90
2023-02-18T08:53:00.380Z,2.70
2023-02-18T08:55:28.180Z,4.07
2023-02-18T08:57:55.774Z,4.47
2023-02-18T09:00:24.972Z,3.70
2023-02-18T09:02:52.575Z,3.53
2023-02-18T09:05:20.367Z,3.30
2023-02-18T09:07:47.944Z,3.20
2023-02-18T09:10:15.734Z,4.10
2023-02-18T09:12:43.249Z,4.83
2023-02-18T09:15:10.946Z,4.07
2023-02-18T09:17:39.774Z,4.40
2023-02-18T09:20:08.618Z,3.97
2023-02-18T09:22:36.180Z,4.00
2023-02-18T09:25:04.535Z,5.30
2023-02-18T09:27:32.029Z,5.40
2023-02-18T09:29:59.723Z,5.83
2023-02-18T09:32:35.493Z,7.80
2023-02-18T09:35:05.444Z,7.30
2023-02-18T09:37:32.992Z,9.17
2023-02-18T09:40:00.764Z,8.70
2023-02-18T09:42:31.192Z,8.70
2023-02-18T09:45:01.350Z,8.40
2023-02-18T09:47:32.799Z,10.50
2023-02-18T09:50:02.200Z,12.07
2023-02-18T09:52:33.356Z,11.30
2023-02-18T09:55:01.001Z,11.50
2023-02-18T09:57:30.507Z,12.30
2023-02-18T10:00:01.123Z,11.80
2023-02-18T10:02:29.179Z,12.93
2023-02-18T10:04:58.056Z,12.27
2023-02-18T10:07:29.416Z,12.70
2023-02-18T10:09:58.944Z,12.73
2023-02-18T10:12:27.834Z,11.87
2023-02-18T10:14:56.718Z,13.80
2023-02-18T10:17:25.778Z,12.50
2023-02-18T10:19:55.016Z,14.27
2023-02-18T10:22:23.576Z,14.57
2023-02-18T10:24:53.524Z,13.33
2023-02-18T10:27:26.109Z,12.97
2023-02-18T10:29:53.728Z,14.33
2023-02-18T10:32:24.196Z,14.50
2023-02-18T10:34:55.576Z,13.07
2023-02-18T10:37:37.410Z,13.80
2023-02-18T10:40:11.504Z,11.57
2023-02-18T10:42:50.697Z,12.53
2023-02-18T10:45:27.288Z,12.07
2023-02-18T10:48:07.320Z,12.40
2023-02-18T10:50:36.866Z,13.97
2023-02-18T10:53:11.443Z,13.07
2023-02-18T10:55:41.619Z,14.07
2023-02-18T10:58:27.343Z,14.47
2023-02-18T11:00:55.088Z,13.80
2023-02-18T11:03:24.083Z,14.77
2023-02-18T11:05:54.000Z,13.17
2023-02-18T11:08:24.010Z,14.60
2023-02-18T11:10:52.028Z,13.30
2023-02-18T11:13:27.457Z,14.80
2023-02-18T11:16:00.629Z,14.27
2023-02-18T11:18:33.710Z,13.20
2023-02-18T11:21:04.674Z,13.50
2023-02-18T11:23:32.134Z,13.00
2023-02-18T11:26:01.889Z,13.80
2023-02-18T11:28:42.469Z,14.97
2023-02-18T11:31:11.326Z,13.43
2023-02-18T11:33:42.345Z,14.50
2023-02-18T11:36:19.809Z,14.43
2023-02-18T11:38:50.275Z,15.33
2023-02-18T11:41:20.056Z,14.10
2023-02-18T11:43:50.646Z,15.40
2023-02-18T11:46:20.514Z,16.10
2023-02-18T11:48:48.752Z,14.10
2023-02-18T11:51:21.087Z,13.90
2023-02-18T11:54:00.589Z,10.70
2023-02-18T11:56:31.113Z,9.97
2023-02-18T11:59:01.223Z,9.03
2023-02-18T12:01:37.938Z,8.00
2023-02-18T12:04:11.185Z,5.70
2023-02-18T12:06:41.359Z,4.50
2023-02-18T12:09:19.733Z,3.13
2023-02-18T12:11:49.532Z,2.50
2023-02-18T12:14:20.587Z,1.10
2023-02-18T12:17:14.209Z,0.93
2023-02-18T12:19:54.503Z,0.40
2023-02-18T12:22:29.801Z,0.80
2023-02-18T12:25:09.182Z,0.50
2023-02-18T12:27:40.687Z,0.90
2023-02-18T12:30:32.246Z,1.13
2023-02-18T12:33:06.103Z,1.30
2023-02-18T12:35:44.004Z,1.20
2023-02-18T12:38:43.913Z,1.00
2023-02-18T12:41:19.574Z,1.10
2023-02-18T12:43:55.843Z,1.50
2023-02-18T12:46:36.689Z,1.90
2023-02-18T12:49:18.404Z,1.73
2023-02-18T12:51:58.141Z,3.10
2023-02-18T12:54:46.714Z,1.87
2023-02-18T12:57:28.202Z,2.70
2023-02-18T13:00:10.235Z,2.37
2023-02-18T13:02:53.276Z,2.33
2023-02-18T13:05:29.460Z,3.23
2023-02-18T13:08:07.126Z,2.07
2023-02-18T13:10:55.689Z,2.60
2023-02-18T13:13:25.986Z,2.80
2023-02-18T13:15:56.249Z,2.60
2023-02-18T13:18:30.301Z,3.03
2023-02-18T13:21:00.698Z,2.70
2023-02-18T13:23:31.609Z,3.30
2023-02-18T13:26:01.534Z,2.87
2023-02-18T13:28:33.844Z,3.60
2023-02-18T13:31:11.583Z,3.50
2023-02-18T13:33:46.287Z,3.77
2023-02-18T13:36:22.877Z,4.20
2023-02-18T13:38:59.265Z,3.77
2023-02-18T13:41:27.656Z,3.73
2023-02-18T13:43:57.752Z,2.93
2023-02-18T13:46:25.823Z,2.90
2023-02-18T13:48:56.349Z,2.80
2023-02-18T13:51:32.412Z,2.50
2023-02-18T13:54:06.434Z,2.23
2023-02-18T13:56:35.129Z,3.47
2023-02-18T13:59:08.489Z,3.30
2023-02-18T14:01:42.185Z,3.63
2023-02-18T14:04:39.780Z,4.00
2023-02-18T14:07:30.104Z,3.43
2023-02-18T14:09:58.885Z,3.57
2023-02-18T14:12:37.514Z,3.93
2023-02-18T14:15:50.393Z,3.10
2023-02-18T14:18:32.853Z,3.77
2023-02-18T14:21:22.488Z,3.17
2023-02-18T14:23:58.666Z,2.90
2023-02-18T14:26:30.475Z,2.20
2023-02-18T14:29:00.672Z,2.43
2023-02-18T14:31:45.386Z,1.80
2023-02-18T14:34:46.019Z,2.70
2023-02-18T14:37:25.676Z,2.70
2023-02-18T14:40:03.023Z,2.60
2023-02-18T14:42:36.952Z,3.17
2023-02-18T14:45:12.518Z,3.13
2023-02-18T14:47:50.558Z,3.10
2023-02-18T14:50:19.703Z,3.30
2023-02-18T14:52:51.380Z,3.47
2023-02-18T14:55:22.410Z,3.53
2023-02-18T14:57:52.185Z,4.07
2023-02-18T15:00:21.875Z,4.00
2023-02-18T15:02:50.175Z,5.13
2023-02-18T15:05:19.599Z,4.20
2023-02-18T15:08:10.755Z,3.70
2023-02-18T15:10:41.168Z,3.73
2023-02-18T15:13:11.057Z,3.50
2023-02-18T15:15:38.751Z,3.40
2023-02-18T15:18:06.622Z,3.07
2023-02-18T15:20:35.652Z,3.70
2023-02-18T15:23:03.592Z,3.20
2023-02-18T15:25:32.563Z,2.63
2023-02-18T15:28:00.729Z,1.60
2023-02-18T15:30:30.904Z,1.63
2023-02-18T15:33:01.708Z,1.50
2023-02-18T15:35:31.482Z,1.67
2023-02-18T15:38:01.163Z,1.50
2023-02-18T15:40:33.522Z,1.67
2023-02-18T15:43:03.915Z,1.37
2023-02-18T15:45:33.001Z,1.80
2023-02-18T15:48:01.833Z,1.80
2023-02-18T15:50:33.163Z,1.57
2023-02-18T15:53:08.608Z,1.50
2023-02-18T15:55:39.585Z,1.50
2023-02-18T15:58:10.439Z,1.90
2023-02-18T16:00:41.684Z,1.70
2023-02-18T16:03:13.848Z,1.80
2023-02-18T16:05:42.738Z,1.60
2023-02-18T16:08:16.036Z,1.97
2023-02-18T16:10:48.677Z,1.70
2023-02-18T16:13:18.090Z,2.27
2023-02-18T16:15:47.787Z,2.10
2023-02-18T16:18:27.675Z,1.70
2023-02-18T16:20:58.173Z,1.80
2023-02-18T16:23:36.013Z,2.00
2023-02-18T16:26:15.791Z,2.40
2023-02-18T16:28:43.875Z,3.40
2023-02-18T16:31:12.095Z,2.53
2023-02-18T16:33:40.033Z,2.47
2023-02-18T16:36:08.489Z,1.90
2023-02-18T16:38:36.889Z,1.60
2023-02-18T16:41:04.822Z,2.50
2023-02-18T16:43:33.727Z,1.90
2023-02-18T16:46:09.557Z,2.10
2023-02-18T16:48:40.208Z,3.00
2023-02-18T16:51:11.926Z,2.30
2023-02-18T16:53:39.839Z,1.97
2023-02-18T16:56:10.957Z,2.63
2023-02-18T16:58:40.340Z,2.90
2023-02-18T17:01:22.090Z,3.23
2023-02-18T17:03:51.240Z,4.17
2023-02-18T17:06:19.379Z,5.37
2023-02-18T17:08:47.332Z,3.07
2023-02-18T17:11:20.559Z,2.70
2023-02-18T17:13:50.680Z,2.87
2023-02-18T17:16:18.697Z,2.60
2023-02-18T17:18:46.994Z,2.17
2023-02-18T17:21:15.288Z,2.90
2023-02-18T17:23:43.500Z,2.10
2023-02-18T17:26:17.915Z,2.60
2023-02-18T17:28:45.528Z,2.80
2023-02-18T17:31:17.352Z,3.03
2023-02-18T17:33:45.348Z,3.20
2023-02-18T17:36:13.663Z,3.37
2023-02-18T17:38:41.628Z,3.70
2023-02-18T17:41:09.673Z,4.27
2023-02-18T17:43:38.176Z,4.10
2023-02-18T17:46:06.225Z,4.23
2023-02-18T17:48:35.201Z,5.20
2023-02-18T17:51:02.867Z,4.67
2023-02-18T17:53:30.394Z,5.40
2023-02-18T17:55:58.047Z,5.40
2023-02-18T17:58:25.534Z,5.40
2023-02-18T18:00:55.661Z,6.10
2023-02-18T18:03:23.584Z,6.80
2023-02-18T18:05:54.436Z,7.10
2023-02-18T18:08:22.133Z,7.70
2023-02-18T18:10:51.929Z,9.53
2023-02-18T18:13:23.925Z,8.03
2023-02-18T18:15:52.179Z,9.30
2023-02-18T18:18:19.842Z,9.77
2023-02-18T18:20:49.479Z,10.00
2023-02-18T18:23:20.900Z,9.10
2023-02-18T18:25:49.937Z,10.33
2023-02-18T18:28:17.549Z,9.67
2023-02-18T18:30:47.212Z,10.33
2023-02-18T18:33:17.357Z,9.80
2023-02-18T18:35:47.545Z,9.97
2023-02-18T18:38:15.593Z,10.73
2023-02-18T18:40:44.948Z,10.87
2023-02-18T18:43:17.195Z,11.90
2023-02-18T18:45:45.092Z,14.10
2023-02-18T18:48:12.966Z,14.00
2023-02-18T18:50:41.866Z,13.60
2023-02-18T18:53:17.224Z,14.60
2023-02-18T18:55:48.717Z,13.70
2023-02-18T18:58:20.693Z,14.00
2023-02-18T19:00:50.470Z,18.67
2023-02-18T19:03:18.759Z,14.90
2023-02-18T19:05:48.260Z,15.90
2023-02-18T19:08:19.419Z,15.80
2023-02-18T19:10:50.186Z,16.13
2023-02-18T19:13:19.505Z,14.50
2023-02-18T19:15:47.964Z,15.17
2023-02-18T19:18:17.870Z,16.60
2023-02-18T19:20:47.332Z,15.77
2023-02-18T19:23:15.231Z,15.90
2023-02-18T19:25:44.342Z,16.07
2023-02-18T19:28:14.594Z,14.90
2023-02-18T19:30:43.225Z,17.40
2023-02-18T19:33:14.460Z,15.40
2023-02-18T19:35:45.170Z,16.87
2023-02-18T19:38:14.903Z,16.90
2023-02-18T19:40:43.403Z,19.90
2023-02-18T19:43:12.995Z,18.00
2023-02-18T19:45:43.003Z,18.67
2023-02-18T19:48:11.531Z,18.70
2023-02-18T19:50:40.794Z,16.90
2023-02-18T19:53:08.738Z,16.23
2023-02-18T19:55:37.022Z,17.33
2023-02-18T19:58:04.769Z,16.67
2023-02-18T20:00:33.798Z,17.87
2023-02-18T20:03:01.793Z,16.50
2023-02-18T20:05:29.440Z,17.47
2023-02-18T20:07:57.021Z,17.90
2023-02-18T20:10:25.310Z,16.47
2023-02-18T20:12:53.874Z,17.67
2023-02-18T20:15:22.070Z,18.00
2023-02-18T20:17:51.294Z,19.00
2023-02-18T20:20:19.671Z,18.90
2023-02-18T20:22:47.415Z,17.47
2023-02-18T20:25:15.157Z,16.40
2023-02-18T20:27:59.464Z,16.57
2023-02-18T20:30:29.084Z,14.97
2023-02-18T20:32:58.432Z,16.40
2023-02-18T20:35:26.374Z,16.50
2023-02-18T20:37:54.504Z,13.90
2023-02-18T20:40:22.550Z,15.13
2023-02-18T20:42:50.741Z,12.53
2023-02-18T20:45:20.208Z,13.20
2023-02-18T20:47:51.434Z,12.53
2023-02-18T20:50:24.091Z,11.80
2023-02-18T20:52:53.611Z,11.90
2023-02-18T20:55:21.278Z,11.80
2023-02-18T20:57:50.688Z,12.27
2023-02-18T21:00:18.486Z,10.63
2023-02-18T21:02:46.115Z,12.20
2023-02-18T21:05:14.110Z,12.60
2023-02-18T21:07:43.235Z,11.80
2023-02-18T21:10:10.988Z,9.90
2023-02-18T21:12:38.713Z,12.60
2023-02-18T21:15:06.671Z,9.83
2023-02-18T21:17:34.322Z,10.53
2023-02-18T21:20:02.100Z,9.53
2023-02-18T21:22:29.873Z,9.47
2023-02-18T21:25:00.324Z,9.17
2023-02-18T21:27:27.979Z,8.87
2023-02-18T21:29:55.627Z,8.77
2023-02-18T21:32:23.303Z,8.90
2023-02-18T21:34:51.086Z,7.80
2023-02-18T21:37:18.657Z,7.50
2023-02-18T21:39:46.263Z,8.37
2023-02-18T21:42:15.203Z,8.13
2023-02-18T21:44:43.189Z,8.33
2023-02-18T21:47:11.707Z,8.83
2023-02-18T21:49:39.432Z,8.47
2023-02-18T21:52:09.313Z,8.40
2023-02-18T21:54:39.138Z,8.93
2023-02-18T21:57:08.422Z,8.03
2023-02-18T21:59:38.456Z,7.03
2023-02-18T22:02:07.301Z,8.70
2023-02-18T22:04:37.348Z,7.53
2023-02-18T22:07:04.907Z,8.40
2023-02-18T22:09:32.579Z,7.00
2023-02-18T22:12:00.736Z,7.83
2023-02-18T22:14:28.497Z,8.87
2023-02-18T22:16:57.639Z,7.93
2023-02-18T22:19:25.583Z,8.20
2023-02-18T22:21:53.240Z,7.27
2023-02-18T22:24:20.968Z,9.70
2023-02-18T22:26:49.019Z,9.00
2023-02-18T22:29:18.372Z,7.90
2023-02-18T22:31:46.975Z,7.97
2023-02-18T22:34:16.394Z,8.10
2023-02-18T22:36:44.139Z,10.00
2023-02-18T22:39:12.755Z,9.53
2023-02-18T22:41:40.805Z,8.53
2023-02-18T22:44:10.250Z,9.30
2023-02-18T22:46:38.849Z,10.40
2023-02-18T22:49:07.838Z,9.90
2023-02-18T22:51:38.653Z,9.10
2023-02-18T22:54:07.226Z,9.60
2023-02-18T22:56:38.048Z,9.97
2023-02-18T22:59:07.407Z,11.97
2023-02-18T23:01:37.153Z,10.03
2023-02-18T23:04:06.450Z,11.17
2023-02-18T23:06:34.570Z,10.73
2023-02-18T23:09:04.056Z,11.40
2023-02-18T23:11:31.731Z,10.23
2023-02-18T23:14:16.897Z,10.17
2023-02-18T23:17:02.544Z,9.60
2023-02-18T23:19:31.837Z,9.30
2023-02-18T23:21:59.649Z,9.83
2023-02-18T23:24:28.972Z,9.60
2023-02-18T23:26:56.597Z,10.13
2023-02-18T23:29:24.480Z,10.00
2023-02-18T23:31:52.047Z,10.20
2023-02-18T23:34:19.800Z,10.97
2023-02-18T23:36:47.878Z,9.80
2023-02-18T23:39:20.755Z,9.77
2023-02-18T23:41:50.570Z,9.30
2023-02-18T23:44:21.261Z,9.90
2023-02-18T23:46:48.986Z,9.53
2023-02-18T23:49:17.817Z,8.70
2023-02-18T23:51:45.389Z,9.67
2023-02-18T23:54:13.022Z,8.90
2023-02-18T23:56:40.631Z,8.83
2023-02-18T23:59:11.028Z,8.20
